Time;durP1;ratioP1;P1;durP2;ratioP2;P2;SDS_P1;SDS_P2;PMS_P1;PMS_P2;Temp;Humidity;BMP_temperature;BMP_pressure;BME280_temperature;BME280_humidity;BME280_pressure;Samples;Min_cycle;Max_cycle;Signal;HPM_P1;HPM_P2
2021/09/02 00:02:12;;;;;;;69.28;10.75;;;19.60;75.50;;;;;;5043194;28;20036;-60
2021/09/02 00:04:38;;;;;;;66.30;10.93;;;19.60;75.60;;;;;;5060837;28;20064;-60
2021/09/02 00:07:04;;;;;;;67.97;11.00;;;19.60;75.50;;;;;;5060746;28;20515;-60
2021/09/02 00:09:29;;;;;;;46.63;9.52;;;19.60;75.70;;;;;;5060112;28;20023;-61
2021/09/02 00:11:55;;;;;;;47.17;10.38;;;19.50;75.80;;;;;;5056420;28;20226;-60
2021/09/02 00:14:20;;;;;;;49.42;10.52;;;19.50;75.80;;;;;;5025711;28;20044;-60
2021/09/02 00:16:47;;;;;;;47.65;9.50;;;19.50;75.80;;;;;;5061172;28;20101;-60
2021/09/02 00:19:12;;;;;;;51.72;9.00;;;19.50;75.90;;;;;;5041725;28;20028;-60
2021/09/02 00:21:38;;;;;;;55.05;10.20;;;19.50;75.90;;;;;;5059423;28;20059;-60
2021/09/02 00:24:04;;;;;;;60.15;10.57;;;19.50;76.00;;;;;;5052379;28;20380;-60
2021/09/02 00:26:29;;;;;;;54.38;10.55;;;19.50;76.10;;;;;;5069152;28;20527;-60
2021/09/02 00:28:55;;;;;;;32.40;10.27;;;19.50;76.10;;;;;;5084525;28;20032;-60
2021/09/02 00:31:20;;;;;;;49.25;11.40;;;19.40;76.10;;;;;;5085849;28;20077;-60
2021/09/02 00:33:46;;;;;;;34.05;9.65;;;19.40;76.10;;;;;;5065557;28;20105;-60
2021/09/02 00:36:11;;;;;;;42.25;11.00;;;19.40;76.10;;;;;;5085042;28;20077;-60
2021/09/02 00:38:38;;;;;;;35.83;9.82;;;19.40;76.20;;;;;;5085025;28;20142;-60
2021/09/02 00:41:03;;;;;;;39.67;10.55;;;19.40;76.20;;;;;;5085466;28;20082;-60
2021/09/02 00:43:39;;;;;;;31.23;9.15;;;19.30;76.20;;;;;;5066805;28;20036;-60
2021/09/02 00:46:08;;;;;;;34.58;10.25;;;19.30;76.30;;;;;;5067207;28;20036;-60
2021/09/02 00:48:34;;;;;;;37.90;10.32;;;19.30;76.40;;;;;;5084217;28;20036;-60
2021/09/02 00:51:00;;;;;;;28.10;8.82;;;19.30;76.40;;;;;;5066933;28;20119;-61
2021/09/02 00:53:25;;;;;;;34.25;9.00;;;19.20;76.40;;;;;;5067205;28;20404;-60
2021/09/02 00:55:51;;;;;;;25.88;8.18;;;19.20;76.50;;;;;;5051837;28;20517;-60
2021/09/02 00:58:19;;;;;;;35.05;8.88;;;19.20;76.60;;;;;;5085377;28;20020;-60
2021/09/02 01:00:44;;;;;;;32.95;8.65;;;19.20;76.60;;;;;;5066551;28;20028;-62
2021/09/02 01:03:10;;;;;;;23.52;8.98;;;19.10;76.60;;;;;;5084780;28;20124;-62
2021/09/02 01:05:36;;;;;;;29.95;8.98;;;19.10;76.60;;;;;;5065374;28;20098;-62
2021/09/02 01:08:02;;;;;;;29.52;9.25;;;19.10;76.80;;;;;;5066007;28;20618;-62
2021/09/02 01:10:28;;;;;;;25.75;9.15;;;19.10;76.80;;;;;;5066786;28;20078;-62
2021/09/02 01:12:53;;;;;;;24.27;9.80;;;19.10;77.40;;;;;;5084428;28;20062;-63
2021/09/02 01:15:21;;;;;;;21.98;9.05;;;19.00;76.70;;;;;;5084044;28;20115;-62
2021/09/02 01:17:48;;;;;;;28.77;9.75;;;19.00;76.80;;;;;;5085395;28;20111;-62
2021/09/02 01:20:15;;;;;;;22.23;9.73;;;19.00;76.80;;;;;;5062667;28;20105;-62
2021/09/02 01:22:42;;;;;;;18.45;8.60;;;19.00;76.90;;;;;;5064680;28;20020;-62
2021/09/02 01:25:10;;;;;;;23.70;8.10;;;19.00;76.90;;;;;;5064848;28;20294;-62
2021/09/02 01:27:35;;;;;;;21.40;8.10;;;19.00;76.90;;;;;;5064671;28;20036;-63
2021/09/02 01:30:06;;;;;;;21.98;8.60;;;18.90;76.90;;;;;;5064613;28;20416;-62
2021/09/02 01:32:32;;;;;;;23.58;7.60;;;18.90;77.00;;;;;;5082721;28;20032;-62
2021/09/02 01:34:58;;;;;;;19.70;7.65;;;18.90;77.00;;;;;;5063271;28;20051;-62
2021/09/02 01:37:24;;;;;;;21.77;8.38;;;18.90;77.10;;;;;;5082136;28;20043;-62
2021/09/02 01:39:50;;;;;;;19.05;8.02;;;18.90;77.20;;;;;;5078247;28;20036;-63
2021/09/02 01:42:16;;;;;;;17.13;8.55;;;18.80;77.20;;;;;;5082848;28;20039;-63
2021/09/02 01:44:42;;;;;;;22.08;8.18;;;18.80;77.20;;;;;;5065372;28;20499;-63
2021/09/02 01:47:26;;;;;;;16.48;7.40;;;18.80;77.30;;;;;;5066477;28;20303;-62
2021/09/02 01:49:52;;;;;;;15.50;7.90;;;18.70;77.30;;;;;;5059861;28;20031;-62
2021/09/02 01:52:18;;;;;;;19.88;7.57;;;18.70;77.40;;;;;;5065163;28;20438;-63
2021/09/02 01:54:44;;;;;;;20.08;8.80;;;18.70;77.30;;;;;;5062763;28;20067;-62
2021/09/02 01:57:10;;;;;;;12.13;6.93;;;18.70;77.40;;;;;;5067534;28;20044;-62
2021/09/02 01:59:35;;;;;;;12.15;6.50;;;18.70;77.40;;;;;;5080045;28;20150;-63
2021/09/02 02:02:01;;;;;;;16.77;7.38;;;18.60;77.40;;;;;;5065843;28;20043;-62
2021/09/02 02:04:26;;;;;;;23.15;7.38;;;18.60;77.40;;;;;;5080437;28;20024;-62
2021/09/02 02:06:52;;;;;;;23.77;7.05;;;18.60;77.50;;;;;;5083930;28;20032;-62
2021/09/02 02:09:17;;;;;;;17.00;7.03;;;18.60;77.50;;;;;;5080726;28;20024;-62
2021/09/02 02:11:43;;;;;;;16.35;6.95;;;18.60;77.60;;;;;;5081832;28;20055;-62
2021/09/02 02:14:08;;;;;;;21.75;7.38;;;18.60;77.70;;;;;;5083075;28;20509;-63
2021/09/02 02:16:34;;;;;;;15.18;6.50;;;18.50;77.70;;;;;;5082283;28;20058;-63
2021/09/02 02:18:59;;;;;;;11.10;5.88;;;18.50;77.70;;;;;;5080905;28;20050;-62
2021/09/02 02:21:25;;;;;;;9.77;5.95;;;18.50;77.80;;;;;;5082578;28;20127;-63
2021/09/02 02:23:50;;;;;;;10.90;5.78;;;18.50;77.80;;;;;;5083108;28;20058;-62
2021/09/02 02:26:16;;;;;;;10.60;5.85;;;18.40;77.70;;;;;;5082796;28;21056;-62
2021/09/02 02:28:41;;;;;;;13.35;6.68;;;18.40;77.80;;;;;;5081085;28;20387;-62
2021/09/02 02:31:07;;;;;;;11.90;5.60;;;18.40;77.80;;;;;;5083247;28;20076;-62
2021/09/02 02:33:32;;;;;;;11.10;6.03;;;18.40;77.80;;;;;;5077284;28;20364;-63
2021/09/02 02:35:58;;;;;;;13.77;5.65;;;18.40;77.80;;;;;;5065264;28;20035;-62
2021/09/02 02:38:23;;;;;;;9.55;5.63;;;18.40;77.90;;;;;;5063715;28;20055;-62
2021/09/02 02:40:49;;;;;;;15.02;6.10;;;18.30;77.90;;;;;;5063610;28;20032;-62
2021/09/02 02:43:15;;;;;;;11.30;6.32;;;18.30;77.90;;;;;;5063290;28;20495;-62
2021/09/02 02:45:40;;;;;;;9.80;6.05;;;18.30;77.90;;;;;;5062212;28;20115;-62
2021/09/02 02:48:06;;;;;;;12.13;6.15;;;18.30;78.00;;;;;;5045140;28;20510;-62
2021/09/02 02:50:31;;;;;;;13.00;6.03;;;18.30;78.00;;;;;;5062975;28;20519;-62
2021/09/02 02:52:58;;;;;;;9.10;5.90;;;18.30;77.90;;;;;;5082813;28;20036;-62
2021/09/02 02:55:23;;;;;;;11.85;6.60;;;18.20;78.00;;;;;;5065846;28;20428;-63
2021/09/02 02:57:49;;;;;;;10.88;5.70;;;18.20;78.00;;;;;;5083172;28;20044;-62
2021/09/02 03:00:15;;;;;;;14.00;6.10;;;18.20;78.10;;;;;;5083172;28;20040;-62
2021/09/02 03:02:40;;;;;;;9.93;5.97;;;18.20;78.10;;;;;;5077274;28;20032;-62
2021/09/02 03:05:08;;;;;;;10.73;5.80;;;18.20;78.10;;;;;;5064458;28;20036;-63
2021/09/02 03:07:34;;;;;;;8.32;5.95;;;18.10;78.10;;;;;;5081252;28;20028;-62
2021/09/02 03:10:00;;;;;;;6.60;5.57;;;18.10;78.20;;;;;;5082720;28;20032;-63
2021/09/02 03:12:25;;;;;;;9.38;5.22;;;18.10;78.20;;;;;;5061895;28;20488;-62
2021/09/02 03:14:51;;;;;;;10.88;5.70;;;18.10;78.30;;;;;;5082864;28;20028;-62
2021/09/02 03:17:16;;;;;;;9.43;5.20;;;18.10;79.00;;;;;;5081585;28;20059;-63
2021/09/02 03:19:42;;;;;;;7.65;5.20;;;18.00;78.40;;;;;;5065550;28;20502;-62
2021/09/02 03:22:07;;;;;;;8.55;5.53;;;18.10;78.40;;;;;;5064103;28;20431;-63
2021/09/02 03:24:33;;;;;;;6.50;5.35;;;18.00;78.40;;;;;;5063160;28;20047;-62
2021/09/02 03:26:58;;;;;;;7.57;4.90;;;18.00;78.40;;;;;;5081029;28;20115;-62
2021/09/02 03:29:24;;;;;;;7.05;5.53;;;18.00;78.50;;;;;;5082949;28;20039;-62
2021/09/02 03:31:49;;;;;;;8.57;5.45;;;18.00;78.60;;;;;;5082581;28;20103;-62
2021/09/02 03:34:15;;;;;;;7.43;5.18;;;18.00;78.60;;;;;;5063239;28;20026;-62
2021/09/02 03:36:41;;;;;;;7.68;5.25;;;17.90;78.60;;;;;;5063891;28;20028;-62
2021/09/02 03:39:06;;;;;;;7.25;5.03;;;17.90;78.60;;;;;;5080037;28;20087;-62
2021/09/02 03:41:32;;;;;;;7.80;5.30;;;17.90;78.70;;;;;;5065892;28;20802;-62
2021/09/02 03:43:57;;;;;;;8.75;5.05;;;17.90;78.70;;;;;;5061894;28;20024;-62
2021/09/02 03:46:23;;;;;;;7.00;4.80;;;17.90;78.80;;;;;;5057834;28;20107;-62
2021/09/02 03:48:48;;;;;;;6.68;4.97;;;17.80;78.90;;;;;;5079671;28;20055;-62
2021/09/02 03:51:14;;;;;;;6.22;4.70;;;17.80;78.90;;;;;;5060328;28;20119;-62
2021/09/02 03:53:39;;;;;;;8.80;5.28;;;17.80;78.90;;;;;;5081404;28;20032;-62
2021/09/02 03:56:05;;;;;;;9.25;4.68;;;17.80;79.00;;;;;;5064108;28;20400;-62
2021/09/02 03:58:30;;;;;;;7.15;5.00;;;17.70;79.00;;;;;;5086482;28;20103;-62
2021/09/02 04:00:56;;;;;;;7.28;4.90;;;17.80;79.20;;;;;;5083378;28;20660;-62
2021/09/02 04:03:21;;;;;;;9.60;4.90;;;17.70;79.30;;;;;;5083256;28;20529;-62
2021/09/02 04:05:47;;;;;;;5.43;4.90;;;17.60;79.20;;;;;;5085285;28;20050;-62
2021/09/02 04:08:12;;;;;;;7.45;6.13;;;17.60;79.30;;;;;;5084466;28;20028;-62
2021/09/02 04:10:38;;;;;;;11.40;6.05;;;17.60;79.30;;;;;;5083661;28;20017;-62
2021/09/02 04:13:03;;;;;;;6.75;5.63;;;17.50;79.30;;;;;;5082745;28;20102;-62
2021/09/02 04:15:29;;;;;;;11.20;5.57;;;17.60;79.40;;;;;;5085721;28;20040;-62
2021/09/02 04:17:54;;;;;;;8.23;6.00;;;17.50;79.40;;;;;;5084385;28;20124;-63
2021/09/02 04:20:20;;;;;;;6.10;5.53;;;17.50;79.40;;;;;;5086832;28;20028;-62
2021/09/02 04:22:45;;;;;;;9.07;6.18;;;17.50;79.50;;;;;;5086023;28;20067;-62
2021/09/02 04:25:11;;;;;;;9.10;5.93;;;17.50;79.50;;;;;;5086108;28;20372;-62
2021/09/02 04:27:36;;;;;;;8.18;5.68;;;17.40;79.50;;;;;;5085057;28;20450;-62
2021/09/02 04:30:03;;;;;;;6.75;5.90;;;17.40;79.40;;;;;;5067355;28;20517;-62
2021/09/02 04:32:28;;;;;;;7.32;5.63;;;17.50;79.50;;;;;;5065801;28;20361;-62
2021/09/02 04:34:54;;;;;;;7.28;5.80;;;17.40;79.60;;;;;;5084780;28;20086;-62
2021/09/02 04:37:19;;;;;;;7.40;5.70;;;17.40;79.60;;;;;;5066849;28;20090;-62
2021/09/02 04:39:45;;;;;;;7.70;6.18;;;17.40;79.70;;;;;;5067548;28;20028;-63
2021/09/02 04:42:10;;;;;;;7.45;5.78;;;17.40;79.80;;;;;;5086205;28;20040;-62
2021/09/02 04:44:36;;;;;;;6.07;5.30;;;17.30;79.80;;;;;;5067774;28;20059;-62
2021/09/02 04:47:01;;;;;;;5.90;5.00;;;17.30;79.90;;;;;;5083337;28;20530;-63
2021/09/02 04:49:27;;;;;;;7.20;5.55;;;17.30;80.00;;;;;;5084560;28;20028;-62
2021/09/02 04:51:52;;;;;;;8.40;5.85;;;17.20;80.00;;;;;;5086366;28;20383;-62
2021/09/02 04:54:18;;;;;;;6.43;5.20;;;17.30;80.00;;;;;;5064794;28;20048;-62
2021/09/02 04:56:44;;;;;;;7.93;4.90;;;17.20;80.00;;;;;;5066331;28;20067;-62
2021/09/02 04:59:09;;;;;;;6.55;5.35;;;17.20;80.00;;;;;;5086444;28;20035;-62
2021/09/02 05:01:35;;;;;;;7.05;5.03;;;17.20;80.10;;;;;;5083656;28;20140;-63
2021/09/02 05:04:00;;;;;;;8.13;5.18;;;17.10;80.00;;;;;;5084602;28;20171;-62
2021/09/02 05:06:26;;;;;;;6.50;4.95;;;17.10;80.20;;;;;;5085743;28;20518;-62
2021/09/02 05:08:51;;;;;;;5.85;4.97;;;17.10;80.10;;;;;;5083656;28;20451;-62
2021/09/02 05:11:17;;;;;;;5.95;5.10;;;17.10;80.20;;;;;;5083894;28;20700;-62
2021/09/02 05:13:42;;;;;;;7.75;4.93;;;17.10;80.30;;;;;;5066198;28;20036;-63
2021/09/02 05:16:08;;;;;;;7.70;5.57;;;17.10;80.40;;;;;;5085535;28;20199;-62
2021/09/02 05:18:33;;;;;;;5.10;4.53;;;17.00;80.40;;;;;;5049853;28;20042;-63
2021/09/02 05:20:59;;;;;;;5.40;4.90;;;17.00;80.50;;;;;;5066503;28;20038;-62
2021/09/02 05:23:24;;;;;;;6.10;5.00;;;17.00;80.50;;;;;;5085631;28;20163;-62
2021/09/02 05:25:50;;;;;;;7.50;5.05;;;17.00;80.50;;;;;;5066986;28;20058;-62
2021/09/02 05:28:15;;;;;;;8.63;5.45;;;17.00;80.50;;;;;;5086398;28;20477;-62
2021/09/02 05:30:41;;;;;;;8.65;5.05;;;17.00;80.60;;;;;;5064696;28;20020;-62
2021/09/02 05:33:07;;;;;;;10.27;5.03;;;17.00;80.60;;;;;;5085190;28;20090;-62
2021/09/02 05:35:32;;;;;;;10.52;5.65;;;16.90;80.60;;;;;;5066806;28;20032;-62
2021/09/02 05:37:58;;;;;;;7.88;4.65;;;16.90;80.70;;;;;;5084492;28;20039;-62
2021/09/02 05:40:23;;;;;;;9.80;5.15;;;16.90;80.70;;;;;;5065329;28;20036;-62
2021/09/02 05:42:49;;;;;;;9.48;4.88;;;16.90;80.80;;;;;;5075580;28;20248;-62
2021/09/02 05:45:14;;;;;;;15.52;5.40;;;16.90;80.90;;;;;;5081751;28;21217;-62
2021/09/02 05:47:40;;;;;;;9.25;5.47;;;16.90;81.00;;;;;;5081138;28;20032;-62
2021/09/02 05:50:06;;;;;;;7.30;4.93;;;16.90;81.00;;;;;;5081709;28;20641;-62
2021/09/02 05:52:32;;;;;;;8.70;5.13;;;16.90;81.00;;;;;;5064061;28;20123;-62
2021/09/02 05:54:58;;;;;;;12.32;5.65;;;16.80;80.90;;;;;;5063262;28;20127;-62
2021/09/02 05:57:23;;;;;;;13.40;5.05;;;16.80;80.90;;;;;;5084571;28;20326;-62
2021/09/02 05:59:50;;;;;;;9.38;4.85;;;16.80;81.10;;;;;;5084158;28;20079;-62
2021/09/02 06:02:15;;;;;;;10.73;4.88;;;16.80;81.20;;;;;;5082097;28;20028;-62
2021/09/02 06:04:41;;;;;;;9.32;5.50;;;16.80;81.20;;;;;;5065326;28;20460;-62
2021/09/02 06:07:06;;;;;;;13.88;4.93;;;16.80;81.20;;;;;;5065517;28;20115;-62
2021/09/02 06:09:32;;;;;;;13.02;4.90;;;16.90;81.30;;;;;;5063735;28;20785;-62
2021/09/02 06:11:57;;;;;;;8.05;5.32;;;16.80;81.20;;;;;;5084802;28;20275;-62
2021/09/02 06:14:23;;;;;;;9.50;4.70;;;16.80;81.20;;;;;;5062591;28;20163;-62
2021/09/02 06:16:48;;;;;;;11.20;4.63;;;16.80;81.20;;;;;;5084857;28;20103;-62
2021/09/02 06:19:14;;;;;;;8.70;5.15;;;16.80;81.20;;;;;;5063864;28;20031;-62
2021/09/02 06:21:39;;;;;;;10.57;5.10;;;16.80;81.10;;;;;;5062188;28;20059;-62
2021/09/02 06:24:05;;;;;;;12.30;4.65;;;16.80;81.20;;;;;;5059194;28;20419;-62
2021/09/02 06:26:30;;;;;;;7.55;4.97;;;16.80;81.20;;;;;;5083061;28;20460;-62
2021/09/02 06:28:56;;;;;;;8.68;4.78;;;16.80;82.10;;;;;;5084340;28;20504;-62
2021/09/02 06:31:21;;;;;;;13.75;4.72;;;16.80;81.40;;;;;;5082831;28;20506;-62
2021/09/02 06:33:47;;;;;;;5.93;5.07;;;16.80;81.30;;;;;;5063787;28;20024;-62
2021/09/02 06:36:12;;;;;;;11.80;5.18;;;16.80;81.30;;;;;;5075207;28;20060;-62
2021/09/02 06:38:38;;;;;;;9.82;4.93;;;16.80;81.30;;;;;;5079984;28;20036;-61
2021/09/02 06:41:03;;;;;;;11.90;4.68;;;16.80;81.20;;;;;;5082469;28;20032;-62
2021/09/02 06:43:29;;;;;;;9.68;4.80;;;16.80;81.20;;;;;;5063898;28;20391;-62
2021/09/02 06:45:54;;;;;;;13.70;5.50;;;16.80;81.20;;;;;;5063187;28;20755;-62
2021/09/02 06:48:20;;;;;;;19.65;6.13;;;16.80;81.30;;;;;;5063157;28;20135;-62
2021/09/02 06:50:45;;;;;;;17.48;6.20;;;16.80;81.50;;;;;;5082014;28;20032;-62
2021/09/02 06:53:11;;;;;;;30.50;8.73;;;16.70;81.80;;;;;;5083180;28;20130;-62
2021/09/02 06:55:36;;;;;;;41.50;8.32;;;16.80;82.00;;;;;;5064931;28;20336;-62
2021/09/02 06:58:02;;;;;;;45.70;8.85;;;16.80;82.00;;;;;;5080058;28;21718;-62
2021/09/02 07:00:28;;;;;;;34.45;7.68;;;16.70;82.00;;;;;;5059758;28;20535;-61
2021/09/02 07:02:53;;;;;;;31.63;7.50;;;16.70;82.20;;;;;;5080304;28;20043;-62
2021/09/02 07:05:19;;;;;;;24.58;7.32;;;16.80;82.70;;;;;;5082378;28;20043;-62
2021/09/02 07:07:44;;;;;;;30.77;7.38;;;16.90;83.80;;;;;;5078321;28;20032;-62
2021/09/02 07:10:10;;;;;;;59.03;10.88;;;16.70;84.00;;;;;;5062720;28;20151;-62
2021/09/02 07:12:36;;;;;;;57.72;9.73;;;16.70;84.60;;;;;;5080984;28;20086;-62
2021/09/02 07:15:02;;;;;;;36.33;9.48;;;16.70;85.00;;;;;;5062855;28;20124;-62
2021/09/02 07:17:27;;;;;;;24.77;8.30;;;16.70;85.30;;;;;;5056798;28;20036;-62
2021/09/02 07:19:53;;;;;;;22.67;8.02;;;16.60;85.60;;;;;;5081004;28;20073;-62
2021/09/02 07:22:18;;;;;;;22.10;7.55;;;16.60;85.80;;;;;;5058180;28;20035;-62
2021/09/02 07:24:44;;;;;;;20.35;7.32;;;16.60;86.20;;;;;;5048271;28;20202;-62
2021/09/02 07:27:10;;;;;;;20.65;7.75;;;16.70;86.30;;;;;;5061424;28;20403;-62
2021/09/02 07:29:35;;;;;;;22.33;8.43;;;16.60;86.70;;;;;;5060565;28;20024;-62
2021/09/02 07:32:01;;;;;;;28.58;7.82;;;16.60;87.00;;;;;;5082879;28;20020;-61
2021/09/02 07:34:26;;;;;;;25.92;7.13;;;16.60;87.10;;;;;;5081406;28;20093;-62
2021/09/02 07:36:52;;;;;;;27.23;8.05;;;16.50;87.20;;;;;;5083323;28;20081;-62
2021/09/02 07:39:17;;;;;;;15.50;7.07;;;16.50;87.30;;;;;;5064517;28;20070;-62
2021/09/02 07:41:43;;;;;;;26.60;8.75;;;16.60;87.30;;;;;;5081403;28;20123;-62
2021/09/02 07:44:08;;;;;;;24.95;8.00;;;16.70;87.30;;;;;;5080601;28;20662;-61
2021/09/02 07:46:34;;;;;;;30.52;8.70;;;16.60;87.40;;;;;;5081049;28;20024;-62
2021/09/02 07:48:59;;;;;;;24.33;7.88;;;16.60;87.60;;;;;;5046971;28;20618;-62
2021/09/02 07:51:25;;;;;;;34.65;10.52;;;16.60;87.40;;;;;;5065550;28;20036;-62
2021/09/02 07:53:50;;;;;;;55.90;11.20;;;16.60;87.60;;;;;;5061803;28;20450;-62
2021/09/02 07:56:16;;;;;;;59.92;10.20;;;16.70;87.70;;;;;;5083985;28;20486;-62
2021/09/02 07:58:42;;;;;;;48.58;8.88;;;16.60;87.40;;;;;;5082476;28;20060;-62
2021/09/02 08:01:10;;;;;;;47.45;10.60;;;16.70;87.40;;;;;;5083656;28;20028;-62
2021/09/02 08:03:37;;;;;;;43.40;9.57;;;16.70;87.70;;;;;;5047831;28;20044;-62
2021/09/02 08:06:02;;;;;;;274.17;24.45;;;16.70;87.60;;;;;;5062833;28;20387;-62
2021/09/02 08:08:28;;;;;;;75.25;13.05;;;16.70;87.90;;;;;;5078709;28;20040;-62
2021/09/02 08:10:53;;;;;;;121.18;16.90;;;16.70;87.70;;;;;;5081501;28;20031;-62
2021/09/02 08:13:19;;;;;;;70.90;11.88;;;16.70;87.90;;;;;;5065886;28;20094;-62
2021/09/02 08:15:44;;;;;;;49.58;10.38;;;16.80;88.00;;;;;;5080895;28;20032;-62
2021/09/02 08:18:10;;;;;;;60.13;11.32;;;16.80;87.80;;;;;;5064164;28;20032;-62
2021/09/02 08:20:36;;;;;;;67.53;11.25;;;16.80;87.40;;;;;;5045568;28;20062;-62
2021/09/02 08:23:02;;;;;;;77.78;11.55;;;16.80;87.30;;;;;;5044650;28;20416;-62
2021/09/02 08:25:28;;;;;;;46.42;9.18;;;16.90;87.50;;;;;;5061489;28;20032;-62
2021/09/02 08:27:53;;;;;;;36.28;9.05;;;16.80;87.50;;;;;;5063124;28;20402;-62
2021/09/02 08:30:21;;;;;;;32.28;9.70;;;16.80;87.90;;;;;;5046165;28;20464;-62
2021/09/02 08:32:47;;;;;;;38.40;8.98;;;16.90;88.20;;;;;;5058302;28;20102;-62
2021/09/02 08:35:15;;;;;;;20.98;8.63;;;16.90;88.10;;;;;;5083000;28;20050;-63
2021/09/02 08:37:40;;;;;;;27.83;9.02;;;16.90;87.40;;;;;;5065475;28;20031;-62
2021/09/02 08:40:06;;;;;;;44.70;9.88;;;16.90;87.50;;;;;;5078881;28;20040;-63
2021/09/02 08:42:32;;;;;;;39.40;9.52;;;16.90;87.80;;;;;;5073023;28;20028;-62
2021/09/02 08:44:58;;;;;;;34.67;8.63;;;17.00;87.60;;;;;;5056353;28;20032;-61
2021/09/02 08:47:23;;;;;;;39.33;9.30;;;17.00;87.80;;;;;;5064291;28;20091;-62
2021/09/02 08:49:49;;;;;;;47.80;9.63;;;17.00;87.80;;;;;;5064179;28;20126;-62
2021/09/02 08:52:14;;;;;;;38.28;9.35;;;17.00;87.90;;;;;;5080010;28;20524;-62
2021/09/02 08:54:40;;;;;;;29.55;9.15;;;17.00;88.30;;;;;;5062920;28;20024;-62
2021/09/02 08:57:06;;;;;;;40.50;9.52;;;17.10;88.50;;;;;;5062851;28;20043;-63
2021/09/02 08:59:32;;;;;;;51.63;10.30;;;17.10;88.50;;;;;;5044451;28;20024;-62
2021/09/02 09:01:57;;;;;;;75.50;12.75;;;17.10;88.80;;;;;;5061451;28;20105;-61
2021/09/02 09:04:23;;;;;;;37.30;9.50;;;17.10;88.70;;;;;;5082562;28;20471;-62
2021/09/02 09:06:48;;;;;;;45.80;10.07;;;17.20;88.80;;;;;;5057322;28;20165;-62
2021/09/02 09:09:15;;;;;;;48.60;10.20;;;17.20;89.00;;;;;;5081338;28;20040;-62
2021/09/02 09:11:47;;;;;;;46.53;9.95;;;17.20;88.30;;;;;;5062563;28;20069;-62
2021/09/02 09:14:19;;;;;;;57.78;10.63;;;17.20;88.50;;;;;;5063292;28;20776;-62
2021/09/02 09:16:48;;;;;;;36.35;9.20;;;17.30;88.50;;;;;;5062717;28;20028;-63
2021/09/02 09:19:49;;;;;;;43.95;9.38;;;17.30;88.50;;;;;;5081147;28;20032;-62
2021/09/02 09:22:16;;;;;;;84.55;12.70;;;17.50;88.80;;;;;;5062898;28;20020;-62
2021/09/02 09:24:52;;;;;;;104.00;14.82;;;17.30;89.70;;;;;;5061490;28;20032;-62
2021/09/02 09:27:21;;;;;;;;;;;17.40;89.00;;;;;;5081143;28;20045;-62
2021/09/02 09:30:09;;;;;;;63.05;10.57;;;17.40;88.80;;;;;;5078660;28;19984;-62
2021/09/02 09:32:51;;;;;;;74.53;11.13;;;17.40;89.00;;;;;;5037297;28;20861;-62
2021/09/02 09:35:22;;;;;;;43.65;10.18;;;17.50;89.10;;;;;;5049172;28;20486;-62
2021/09/02 09:37:48;;;;;;;45.97;10.35;;;17.50;89.10;;;;;;5061229;28;20123;-62
2021/09/02 09:40:22;;;;;;;72.65;13.02;;;17.50;88.90;;;;;;5055757;28;20040;-62
2021/09/02 09:43:04;;;;;;;76.70;11.95;;;17.50;88.80;;;;;;5037383;28;20659;-62
2021/09/02 09:45:35;;;;;;;52.60;10.43;;;17.50;88.90;;;;;;5074289;28;20531;-63
2021/09/02 09:48:01;;;;;;;50.72;10.68;;;17.60;88.80;;;;;;5066023;28;20110;-62
2021/09/02 09:50:27;;;;;;;64.70;9.75;;;17.60;89.10;;;;;;5085537;28;20107;-62
2021/09/02 09:52:52;;;;;;;43.40;9.80;;;17.60;88.60;;;;;;5018162;28;20391;-62
2021/09/02 09:55:18;;;;;;;58.85;11.40;;;17.70;88.50;;;;;;5078480;28;20017;-61
2021/09/02 09:57:46;;;;;;;113.13;14.38;;;17.70;88.60;;;;;;5076777;28;20837;-62
2021/09/02 10:00:12;;;;;;;83.75;13.18;;;17.70;88.40;;;;;;5061624;28;20024;-62
2021/09/02 10:02:39;;;;;;;67.40;11.65;;;17.70;88.30;;;;;;5057880;28;20183;-62
2021/09/02 10:05:06;;;;;;;54.55;11.10;;;17.80;88.40;;;;;;5043900;28;20409;-62
2021/09/02 10:07:33;;;;;;;53.45;11.25;;;17.80;88.10;;;;;;5072323;28;20525;-62
2021/09/02 10:09:59;;;;;;;73.47;10.45;;;17.80;88.10;;;;;;5073095;28;20510;-62
2021/09/02 10:12:24;;;;;;;45.80;9.45;;;17.90;88.20;;;;;;5063247;28;20036;-62
2021/09/02 10:14:50;;;;;;;69.60;11.48;;;17.80;88.10;;;;;;5062155;28;20016;-62
2021/09/02 10:17:16;;;;;;;72.60;10.98;;;17.90;88.10;;;;;;5054391;28;20387;-62
2021/09/02 10:19:42;;;;;;;94.72;13.85;;;17.90;88.10;;;;;;5056081;28;20034;-62
2021/09/02 10:22:08;;;;;;;52.83;10.93;;;18.00;87.80;;;;;;5045464;28;20443;-62
2021/09/02 10:24:38;;;;;;;57.15;10.77;;;18.00;87.60;;;;;;5061690;28;20492;-62
2021/09/02 10:27:22;;;;;;;74.65;10.73;;;18.10;87.50;;;;;;5056461;28;20028;-62
2021/09/02 10:29:48;;;;;;;63.72;10.95;;;18.10;87.40;;;;;;5057924;28;20036;-62
2021/09/02 10:32:22;;;;;;;56.10;11.10;;;18.10;87.30;;;;;;5043486;28;20044;-62
2021/09/02 10:34:52;;;;;;;52.63;11.02;;;18.20;87.30;;;;;;5081264;28;20447;-62
2021/09/02 10:37:36;;;;;;;45.72;9.68;;;18.20;87.10;;;;;;5062312;28;20428;-62
2021/09/02 10:40:09;;;;;;;78.13;12.00;;;18.20;87.10;;;;;;5083109;28;20158;-62
2021/09/02 10:42:42;;;;;;;58.08;11.32;;;18.30;87.10;;;;;;5065497;28;20466;-62
2021/09/02 10:45:30;;;;;;;54.40;10.30;;;18.30;87.10;;;;;;5047029;28;20047;-62
2021/09/02 10:47:56;;;;;;;59.50;10.73;;;18.40;86.90;;;;;;5077533;28;20015;-62
2021/09/02 10:50:29;;;;;;;44.53;8.45;;;18.40;86.90;;;;;;5064115;28;20499;-62
2021/09/02 10:53:07;;;;;;;75.03;11.45;;;18.40;86.70;;;;;;5062462;28;20024;-62
2021/09/02 10:55:36;;;;;;;42.47;9.55;;;18.50;86.70;;;;;;5061342;28;20040;-62
2021/09/02 10:58:04;;;;;;;47.08;9.30;;;18.50;87.30;;;;;;5057293;28;20051;-62
2021/09/02 11:00:37;;;;;;;46.53;10.10;;;18.60;86.50;;;;;;5081009;28;20016;-62
2021/09/02 11:03:19;;;;;;;37.78;9.20;;;18.60;86.50;;;;;;5063694;28;20015;-62
2021/09/02 11:05:49;;;;;;;52.47;10.15;;;18.70;86.40;;;;;;5063019;28;20463;-62
2021/09/02 11:08:35;;;;;;;52.75;9.65;;;18.80;86.20;;;;;;5062265;28;20028;-62
2021/09/02 11:11:10;;;;;;;51.22;9.57;;;18.80;86.00;;;;;;5059636;28;20076;-62
2021/09/02 11:13:36;;;;;;;52.70;10.18;;;18.90;85.90;;;;;;5078574;28;20063;-62
2021/09/02 11:16:12;;;;;;;45.13;9.38;;;18.90;85.50;;;;;;5077981;28;20067;-62
2021/09/02 11:18:51;;;;;;;35.65;8.40;;;19.00;85.70;;;;;;5062502;28;20027;-62
2021/09/02 11:21:29;;;;;;;57.80;9.63;;;19.00;85.50;;;;;;5079995;28;20031;-62
2021/09/02 11:23:59;;;;;;;42.33;9.48;;;19.10;85.40;;;;;;5062942;28;20649;-62
2021/09/02 11:26:35;;;;;;;46.00;8.95;;;19.10;85.30;;;;;;5060449;28;20028;-62
2021/09/02 11:29:01;;;;;;;38.85;8.90;;;19.20;85.20;;;;;;5076616;28;20051;-62
2021/09/02 11:31:27;;;;;;;35.72;8.68;;;19.20;85.00;;;;;;5063590;28;20415;-62
2021/09/02 11:33:53;;;;;;;24.38;7.72;;;19.30;84.70;;;;;;5063664;28;20024;-62
2021/09/02 11:36:19;;;;;;;37.25;8.02;;;19.40;84.60;;;;;;5075221;28;20059;-62
2021/09/02 11:38:46;;;;;;;71.40;10.10;;;19.50;84.40;;;;;;5056775;28;20098;-62
2021/09/02 11:41:20;;;;;;;48.22;10.23;;;19.50;84.10;;;;;;5060344;28;20125;-62
2021/09/02 11:43:47;;;;;;;43.72;8.07;;;19.60;83.90;;;;;;5063190;28;20368;-62
2021/09/02 11:46:12;;;;;;;31.05;8.13;;;19.70;83.60;;;;;;5062106;28;20028;-62
2021/09/02 11:48:47;;;;;;;40.95;8.00;;;19.70;83.20;;;;;;5059380;28;20378;-62
2021/09/02 11:51:21;;;;;;;37.95;7.70;;;19.80;83.00;;;;;;5062614;28;20043;-62
2021/09/02 11:53:50;;;;;;;126.47;14.02;;;19.90;82.70;;;;;;5061521;28;20028;-62
2021/09/02 11:56:21;;;;;;;71.78;8.95;;;20.00;82.50;;;;;;5060287;28;20028;-62
2021/09/02 11:58:55;;;;;;;79.40;11.27;;;20.00;82.10;;;;;;5057041;28;20028;-62
2021/09/02 12:01:20;;;;;;;84.18;10.98;;;20.10;81.90;;;;;;5080952;28;20499;-62
2021/09/02 12:03:49;;;;;;;75.93;10.93;;;20.20;81.60;;;;;;5039115;28;20059;-62
2021/09/02 12:06:15;;;;;;;55.35;9.05;;;20.30;81.50;;;;;;5074187;28;20034;-62
2021/09/02 12:08:43;;;;;;;64.43;10.25;;;20.30;81.30;;;;;;5059747;28;20494;-62
2021/09/02 12:11:09;;;;;;;49.13;8.77;;;20.40;80.90;;;;;;5061353;28;20134;-62
2021/09/02 12:13:35;;;;;;;55.42;8.55;;;20.50;81.00;;;;;;5058425;28;20619;-62
2021/09/02 12:16:11;;;;;;;54.30;8.98;;;20.50;80.70;;;;;;5076692;28;20044;-62
2021/09/02 12:18:38;;;;;;;42.30;8.32;;;20.60;80.70;;;;;;5080366;28;20242;-63
2021/09/02 12:21:13;;;;;;;35.65;8.32;;;20.70;80.40;;;;;;5081231;28;20123;-62
2021/09/02 12:23:42;;;;;;;55.72;9.27;;;20.70;80.10;;;;;;5084393;28;20028;-62
2021/09/02 12:26:07;;;;;;;57.58;8.52;;;20.80;80.00;;;;;;5085603;28;20068;-62
2021/09/02 12:28:38;;;;;;;36.80;7.20;;;20.90;79.80;;;;;;5085173;28;20493;-62
2021/09/02 12:31:31;;;;;;;28.27;6.20;;;21.00;79.10;;;;;;5064639;28;20430;-62
2021/09/02 12:34:02;;;;;;;23.27;7.03;;;21.00;78.80;;;;;;5066808;28;20088;-62
2021/09/02 12:36:30;;;;;;;36.03;7.80;;;21.10;78.90;;;;;;5066579;28;20054;-61
2021/09/02 12:39:09;;;;;;;34.53;6.97;;;21.10;78.60;;;;;;5065995;28;20115;-62